sensor_id;sensor_type;location;lat;lon;timestamp;pressure;altitude;pressure_sealevel;temperature;humidity
12594;BME280;6362;50.208;9.182;2022-11-20T00:01:46;99426.94;;;0.70;100.00
12594;BME280;6362;50.208;9.182;2022-11-20T00:04:12;99429.53;;;0.71;100.00
12594;BME280;6362;50.208;9.182;2022-11-20T00:06:37;99424.41;;;0.68;100.00
12594;BME280;6362;50.208;9.182;2022-11-20T00:09:03;99420.16;;;0.67;100.00
12594;BME280;6362;50.208;9.182;2022-11-20T00:11:31;99425.91;;;0.65;100.00
12594;BME280;6362;50.208;9.182;2022-11-20T00:13:58;99428.41;;;0.65;100.00
12594;BME280;6362;50.208;9.182;2022-11-20T00:16:27;99427.38;;;0.59;100.00
12594;BME280;6362;50.208;9.182;2022-11-20T00:18:53;99428.88;;;0.56;100.00
12594;BME280;6362;50.208;9.182;2022-11-20T00:21:23;99427.03;;;0.52;100.00
12594;BME280;6362;50.208;9.182;2022-11-20T00:23:50;99421.09;;;0.50;100.00
12594;BME280;6362;50.208;9.182;2022-11-20T00:26:18;99415.16;;;0.48;100.00
12594;BME280;6362;50.208;9.182;2022-11-20T00:28:52;99414.28;;;0.47;100.00
12594;BME280;6362;50.208;9.182;2022-11-20T00:31:18;99416.66;;;0.44;100.00
12594;BME280;6362;50.208;9.182;2022-11-20T00:33:44;99411.75;;;0.47;100.00
12594;BME280;6362;50.208;9.182;2022-11-20T00:36:17;99410.88;;;0.45;100.00
12594;BME280;6362;50.208;9.182;2022-11-20T00:38:44;99405.91;;;0.47;100.00
12594;BME280;6362;50.208;9.182;2022-11-20T00:41:12;99414.34;;;0.49;100.00
12594;BME280;6362;50.208;9.182;2022-11-20T00:43:37;99409.94;;;0.43;100.00
12594;BME280;6362;50.208;9.182;2022-11-20T00:46:14;99406.25;;;0.54;100.00
12594;BME280;6362;50.208;9.182;2022-11-20T00:48:40;99405.50;;;0.57;100.00
12594;BME280;6362;50.208;9.182;2022-11-20T00:51:06;99398.00;;;0.57;100.00
12594;BME280;6362;50.208;9.182;2022-11-20T00:53:31;99404.13;;;0.64;100.00
12594;BME280;6362;50.208;9.182;2022-11-20T00:56:03;99397.44;;;0.64;100.00
12594;BME280;6362;50.208;9.182;2022-11-20T00:58:31;99402.66;;;0.69;100.00
12594;BME280;6362;50.208;9.182;2022-11-20T01:01:02;99405.63;;;0.79;100.00
12594;BME280;6362;50.208;9.182;2022-11-20T01:03:31;99399.06;;;0.83;100.00
12594;BME280;6362;50.208;9.182;2022-11-20T01:06:00;99398.22;;;0.82;100.00
12594;BME280;6362;50.208;9.182;2022-11-20T01:08:29;99397.28;;;0.80;100.00
12594;BME280;6362;50.208;9.182;2022-11-20T01:11:02;99414.81;;;0.79;100.00
12594;BME280;6362;50.208;9.182;2022-11-20T01:13:29;99407.31;;;0.80;100.00
12594;BME280;6362;50.208;9.182;2022-11-20T01:18:30;99400.06;;;0.87;100.00
12594;BME280;6362;50.208;9.182;2022-11-20T01:20:55;99400.72;;;0.82;100.00
12594;BME280;6362;50.208;9.182;2022-11-20T01:23:20;99389.63;;;0.77;100.00
12594;BME280;6362;50.208;9.182;2022-11-20T01:25:46;99387.97;;;0.78;100.00
12594;BME280;6362;50.208;9.182;2022-11-20T01:28:11;99390.75;;;0.84;100.00
12594;BME280;6362;50.208;9.182;2022-11-20T01:30:36;99387.44;;;0.85;100.00
12594;BME280;6362;50.208;9.182;2022-11-20T01:33:02;99390.69;;;0.82;100.00
12594;BME280;6362;50.208;9.182;2022-11-20T01:35:27;99389.91;;;0.83;100.00
12594;BME280;6362;50.208;9.182;2022-11-20T01:37:53;99389.91;;;0.83;100.00
12594;BME280;6362;50.208;9.182;2022-11-20T01:40:18;99393.38;;;0.87;100.00
12594;BME280;6362;50.208;9.182;2022-11-20T01:42:53;99388.63;;;0.74;100.00
12594;BME280;6362;50.208;9.182;2022-11-20T01:48:26;99376.16;;;0.75;100.00
12594;BME280;6362;50.208;9.182;2022-11-20T01:50:53;99369.81;;;0.83;100.00
12594;BME280;6362;50.208;9.182;2022-11-20T01:53:24;99381.63;;;0.86;100.00
12594;BME280;6362;50.208;9.182;2022-11-20T01:55:55;99377.34;;;0.83;100.00
12594;BME280;6362;50.208;9.182;2022-11-20T01:58:30;99382.41;;;0.85;100.00
12594;BME280;6362;50.208;9.182;2022-11-20T02:00:56;99375.22;;;0.73;100.00
12594;BME280;6362;50.208;9.182;2022-11-20T02:03:22;99371.91;;;0.74;100.00
12594;BME280;6362;50.208;9.182;2022-11-20T02:06:01;99378.13;;;0.82;100.00
12594;BME280;6362;50.208;9.182;2022-11-20T02:08:29;99371.31;;;0.80;100.00
12594;BME280;6362;50.208;9.182;2022-11-20T02:10:55;99368.88;;;0.81;100.00
12594;BME280;6362;50.208;9.182;2022-11-20T02:13:21;99380.03;;;0.88;100.00
12594;BME280;6362;50.208;9.182;2022-11-20T02:16:10;99380.75;;;0.86;100.00
12594;BME280;6362;50.208;9.182;2022-11-20T02:18:37;99379.72;;;0.80;100.00
12594;BME280;6362;50.208;9.182;2022-11-20T02:21:07;99372.31;;;0.83;100.00
12594;BME280;6362;50.208;9.182;2022-11-20T02:26:23;99371.41;;;0.81;100.00
12594;BME280;6362;50.208;9.182;2022-11-20T02:28:49;99364.66;;;0.80;100.00
12594;BME280;6362;50.208;9.182;2022-11-20T02:31:15;99360.38;;;0.78;100.00
12594;BME280;6362;50.208;9.182;2022-11-20T02:33:41;99355.66;;;0.86;100.00
12594;BME280;6362;50.208;9.182;2022-11-20T02:36:08;99356.72;;;0.91;100.00
12594;BME280;6362;50.208;9.182;2022-11-20T02:38:37;99357.63;;;0.93;100.00
12594;BME280;6362;50.208;9.182;2022-11-20T02:41:02;99360.72;;;0.87;100.00
12594;BME280;6362;50.208;9.182;2022-11-20T02:43:28;99354.88;;;0.87;100.00
12594;BME280;6362;50.208;9.182;2022-11-20T02:45:53;99354.88;;;0.87;100.00
12594;BME280;6362;50.208;9.182;2022-11-20T02:48:18;99353.03;;;0.82;100.00
12594;BME280;6362;50.208;9.182;2022-11-20T02:50:44;99350.63;;;0.86;100.00
12594;BME280;6362;50.208;9.182;2022-11-20T02:53:09;99355.59;;;0.84;100.00
12594;BME280;6362;50.208;9.182;2022-11-20T02:55:35;99355.53;;;0.82;100.00
12594;BME280;6362;50.208;9.182;2022-11-20T02:58:01;99354.88;;;0.87;100.00
12594;BME280;6362;50.208;9.182;2022-11-20T03:00:26;99356.38;;;0.83;100.00
12594;BME280;6362;50.208;9.182;2022-11-20T03:02:52;99357.94;;;0.79;100.00
12594;BME280;6362;50.208;9.182;2022-11-20T03:05:17;99361.84;;;0.73;100.00
12594;BME280;6362;50.208;9.182;2022-11-20T03:07:43;99360.97;;;0.72;100.00
12594;BME280;6362;50.208;9.182;2022-11-20T03:10:09;99357.75;;;0.75;100.00
12594;BME280;6362;50.208;9.182;2022-11-20T03:12:34;99365.00;;;0.69;100.00
12594;BME280;6362;50.208;9.182;2022-11-20T03:15:00;99357.56;;;0.70;100.00
12594;BME280;6362;50.208;9.182;2022-11-20T03:17:25;99359.19;;;0.70;100.00
12594;BME280;6362;50.208;9.182;2022-11-20T03:19:50;99344.00;;;0.67;100.00
12594;BME280;6362;50.208;9.182;2022-11-20T03:22:16;99355.78;;;0.68;100.00
12594;BME280;6362;50.208;9.182;2022-11-20T03:24:41;99354.03;;;0.67;100.00
12594;BME280;6362;50.208;9.182;2022-11-20T03:27:07;99353.00;;;0.61;100.00
12594;BME280;6362;50.208;9.182;2022-11-20T03:29:32;99344.72;;;0.64;100.00
12594;BME280;6362;50.208;9.182;2022-11-20T03:31:57;99341.56;;;0.68;100.00
12594;BME280;6362;50.208;9.182;2022-11-20T03:34:23;99344.19;;;0.71;100.00
12594;BME280;6362;50.208;9.182;2022-11-20T03:36:48;99340.00;;;0.72;100.00
12594;BME280;6362;50.208;9.182;2022-11-20T03:39:14;99346.03;;;0.75;100.00
12594;BME280;6362;50.208;9.182;2022-11-20T03:41:41;99344.00;;;0.67;100.00
12594;BME280;6362;50.208;9.182;2022-11-20T03:44:09;99344.13;;;0.70;100.00
12594;BME280;6362;50.208;9.182;2022-11-20T03:46:35;99342.59;;;0.73;100.00
12594;BME280;6362;50.208;9.182;2022-11-20T03:49:00;99348.47;;;0.74;100.00
12594;BME280;6362;50.208;9.182;2022-11-20T03:51:31;99345.97;;;0.74;100.00
12594;BME280;6362;50.208;9.182;2022-11-20T03:53:59;99359.19;;;0.70;100.00
12594;BME280;6362;50.208;9.182;2022-11-20T03:56:27;99352.34;;;0.66;100.00
12594;BME280;6362;50.208;9.182;2022-11-20T03:58:53;99350.69;;;0.66;100.00
12594;BME280;6362;50.208;9.182;2022-11-20T04:01:22;99344.66;;;0.62;100.00
12594;BME280;6362;50.208;9.182;2022-11-20T04:03:48;99337.97;;;0.63;100.00
12594;BME280;6362;50.208;9.182;2022-11-20T04:06:18;99337.13;;;0.62;100.00
12594;BME280;6362;50.208;9.182;2022-11-20T04:08:45;99334.69;;;0.64;100.00
12594;BME280;6362;50.208;9.182;2022-11-20T04:11:19;99333.28;;;0.71;100.00
12594;BME280;6362;50.208;9.182;2022-11-20T04:13:47;99333.38;;;0.72;100.00
12594;BME280;6362;50.208;9.182;2022-11-20T04:16:13;99336.59;;;0.70;100.00
12594;BME280;6362;50.208;9.182;2022-11-20T04:18:39;99337.31;;;0.67;100.00
12594;BME280;6362;50.208;9.182;2022-11-20T04:21:05;99344.91;;;0.69;100.00
12594;BME280;6362;50.208;9.182;2022-11-20T04:23:31;99347.50;;;0.70;100.00
12594;BME280;6362;50.208;9.182;2022-11-20T04:26:06;99339.72;;;0.64;100.00
12594;BME280;6362;50.208;9.182;2022-11-20T04:28:32;99339.84;;;0.67;100.00
12594;BME280;6362;50.208;9.182;2022-11-20T04:31:09;99342.34;;;0.67;100.00
12594;BME280;6362;50.208;9.182;2022-11-20T04:33:36;99338.06;;;0.65;100.00
12594;BME280;6362;50.208;9.182;2022-11-20T04:36:07;99340.38;;;0.60;100.00
12594;BME280;6362;50.208;9.182;2022-11-20T04:38:33;99322.16;;;0.64;100.00
12594;BME280;6362;50.208;9.182;2022-11-20T04:41:00;99329.00;;;0.68;100.00
12594;BME280;6362;50.208;9.182;2022-11-20T04:43:26;99329.75;;;0.66;100.00
12594;BME280;6362;50.208;9.182;2022-11-20T04:45:56;99326.25;;;0.62;100.00
12594;BME280;6362;50.208;9.182;2022-11-20T04:48:23;99323.63;;;0.59;100.00
12594;BME280;6362;50.208;9.182;2022-11-20T04:50:50;99323.66;;;0.60;100.00
12594;BME280;6362;50.208;9.182;2022-11-20T04:53:16;99317.31;;;0.69;100.00
12594;BME280;6362;50.208;9.182;2022-11-20T04:55:41;99318.97;;;0.68;100.00
12594;BME280;6362;50.208;9.182;2022-11-20T04:58:07;99319.34;;;0.77;100.00
12594;BME280;6362;50.208;9.182;2022-11-20T05:00:33;99316.75;;;0.76;100.00
12594;BME280;6362;50.208;9.182;2022-11-20T05:02:58;99313.41;;;0.75;100.00
12594;BME280;6362;50.208;9.182;2022-11-20T05:05:24;99306.66;;;0.74;100.00
12594;BME280;6362;50.208;9.182;2022-11-20T05:07:49;99305.78;;;0.74;100.00
12594;BME280;6362;50.208;9.182;2022-11-20T05:10:15;99297.41;;;0.73;100.00
12594;BME280;6362;50.208;9.182;2022-11-20T05:12:41;99291.78;;;0.79;100.00
12594;BME280;6362;50.208;9.182;2022-11-20T05:15:06;99301.94;;;0.82;100.00
12594;BME280;6362;50.208;9.182;2022-11-20T05:17:32;99301.69;;;0.76;100.00
12594;BME280;6362;50.208;9.182;2022-11-20T05:19:57;99297.50;;;0.75;100.00
12594;BME280;6362;50.208;9.182;2022-11-20T05:22:23;99300.03;;;0.76;100.00
12594;BME280;6362;50.208;9.182;2022-11-20T05:24:48;99298.63;;;0.83;100.00
12594;BME280;6362;50.208;9.182;2022-11-20T05:27:14;99298.69;;;0.85;100.00
12594;BME280;6362;50.208;9.182;2022-11-20T05:29:39;99297.97;;;0.87;100.00
12594;BME280;6362;50.208;9.182;2022-11-20T05:32:05;99301.41;;;0.89;100.00
12594;BME280;6362;50.208;9.182;2022-11-20T05:34:32;99298.59;;;0.81;100.00
12594;BME280;6362;50.208;9.182;2022-11-20T05:36:58;99301.88;;;0.80;100.00
12594;BME280;6362;50.208;9.182;2022-11-20T05:39:23;99298.41;;;0.77;100.00
12594;BME280;6362;50.208;9.182;2022-11-20T05:41:49;99297.84;;;0.84;100.00
12594;BME280;6362;50.208;9.182;2022-11-20T05:44:34;99296.84;;;0.80;100.00
12594;BME280;6362;50.208;9.182;2022-11-20T05:46:59;99296.69;;;0.76;100.00
12594;BME280;6362;50.208;9.182;2022-11-20T05:49:25;99298.41;;;0.77;100.00
12594;BME280;6362;50.208;9.182;2022-11-20T05:51:50;99296.50;;;0.71;100.00
12594;BME280;6362;50.208;9.182;2022-11-20T05:54:16;99294.91;;;0.73;100.00
12594;BME280;6362;50.208;9.182;2022-11-20T05:56:41;99295.91;;;0.77;100.00
12594;BME280;6362;50.208;9.182;2022-11-20T05:59:07;99300.84;;;0.75;100.00
12594;BME280;6362;50.208;9.182;2022-11-20T06:01:32;99306.34;;;0.67;100.00
12594;BME280;6362;50.208;9.182;2022-11-20T06:03:58;99300.41;;;0.65;100.00
12594;BME280;6362;50.208;9.182;2022-11-20T06:06:23;99301.22;;;0.64;100.00
12594;BME280;6362;50.208;9.182;2022-11-20T06:08:50;99309.53;;;0.62;100.00
12594;BME280;6362;50.208;9.182;2022-11-20T06:11:16;99306.09;;;0.60;100.00
12594;BME280;6362;50.208;9.182;2022-11-20T06:13:42;99306.81;;;0.58;100.00
12594;BME280;6362;50.208;9.182;2022-11-20T06:16:09;99305.16;;;0.58;100.00
12594;BME280;6362;50.208;9.182;2022-11-20T06:18:35;99301.81;;;0.58;100.00
12594;BME280;6362;50.208;9.182;2022-11-20T06:23:29;99291.19;;;0.64;100.00
12594;BME280;6362;50.208;9.182;2022-11-20T06:25:54;99303.00;;;0.66;100.00
12594;BME280;6362;50.208;9.182;2022-11-20T06:28:19;99312.03;;;0.62;100.00
12594;BME280;6362;50.208;9.182;2022-11-20T06:30:45;99314.00;;;0.70;100.00
12594;BME280;6362;50.208;9.182;2022-11-20T06:33:11;99317.50;;;0.73;100.00
12594;BME280;6362;50.208;9.182;2022-11-20T06:35:36;99316.38;;;0.67;100.00
12594;BME280;6362;50.208;9.182;2022-11-20T06:38:01;99308.13;;;0.69;100.00
12594;BME280;6362;50.208;9.182;2022-11-20T06:40:27;99309.03;;;0.71;100.00
12594;BME280;6362;50.208;9.182;2022-11-20T06:42:53;99310.06;;;0.76;100.00
12594;BME280;6362;50.208;9.182;2022-11-20T06:45:20;99321.84;;;0.77;100.00
12594;BME280;6362;50.208;9.182;2022-11-20T06:47:45;99318.72;;;0.83;100.00
12594;BME280;6362;50.208;9.182;2022-11-20T06:50:11;99326.31;;;0.85;100.00
12594;BME280;6362;50.208;9.182;2022-11-20T06:52:36;99328.16;;;0.89;100.00
12594;BME280;6362;50.208;9.182;2022-11-20T06:55:02;99323.41;;;0.95;100.00
12594;BME280;6362;50.208;9.182;2022-11-20T06:57:27;99329.13;;;0.92;100.00
12594;BME280;6362;50.208;9.182;2022-11-20T06:59:52;99326.88;;;0.98;100.00
12594;BME280;6362;50.208;9.182;2022-11-20T07:02:18;99326.84;;;0.97;100.00
12594;BME280;6362;50.208;9.182;2022-11-20T07:04:43;99332.81;;;1.00;100.00
12594;BME280;6362;50.208;9.182;2022-11-20T07:07:09;99328.66;;;1.01;100.00
12594;BME280;6362;50.208;9.182;2022-11-20T07:09:34;99318.66;;;1.02;100.00
12594;BME280;6362;50.208;9.182;2022-11-20T07:11:59;99317.84;;;1.03;100.00
12594;BME280;6362;50.208;9.182;2022-11-20T07:14:25;99311.19;;;1.04;100.00
12594;BME280;6362;50.208;9.182;2022-11-20T07:16:51;99316.03;;;0.99;100.00
12594;BME280;6362;50.208;9.182;2022-11-20T07:19:16;99317.84;;;1.03;100.00
12594;BME280;6362;50.208;9.182;2022-11-20T07:21:42;99304.69;;;1.09;100.00
12594;BME280;6362;50.208;9.182;2022-11-20T07:24:07;99306.28;;;1.07;100.00
12594;BME280;6362;50.208;9.182;2022-11-20T07:26:33;99305.63;;;1.11;100.00
12594;BME280;6362;50.208;9.182;2022-11-20T07:28:58;99302.94;;;1.07;100.00
12594;BME280;6362;50.208;9.182;2022-11-20T07:31:23;99300.53;;;1.10;100.00
12594;BME280;6362;50.208;9.182;2022-11-20T07:33:49;99301.50;;;1.13;100.00
12594;BME280;6362;50.208;9.182;2022-11-20T07:36:14;99309.16;;;1.16;100.00
12594;BME280;6362;50.208;9.182;2022-11-20T07:38:40;99305.16;;;1.21;100.00
12594;BME280;6362;50.208;9.182;2022-11-20T07:41:05;99305.97;;;1.20;100.00
12594;BME280;6362;50.208;9.182;2022-11-20T07:43:30;99309.41;;;1.22;100.00
12594;BME280;6362;50.208;9.182;2022-11-20T07:45:57;99311.84;;;1.21;100.00
12594;BME280;6362;50.208;9.182;2022-11-20T07:48:23;99314.34;;;1.21;100.00
12594;BME280;6362;50.208;9.182;2022-11-20T07:50:49;99314.53;;;1.25;100.00
12594;BME280;6362;50.208;9.182;2022-11-20T07:53:14;99311.34;;;1.30;100.00
12594;BME280;6362;50.208;9.182;2022-11-20T07:55:46;99312.84;;;1.24;100.00
12594;BME280;6362;50.208;9.182;2022-11-20T07:58:11;99313.69;;;1.25;100.00
12594;BME280;6362;50.208;9.182;2022-11-20T08:00:37;99301.38;;;1.31;100.00
12594;BME280;6362;50.208;9.182;2022-11-20T08:03:03;99300.38;;;1.28;100.00
12594;BME280;6362;50.208;9.182;2022-11-20T08:05:29;99303.63;;;1.25;100.00
12594;BME280;6362;50.208;9.182;2022-11-20T08:07:55;99311.44;;;1.33;100.00
12594;BME280;6362;50.208;9.182;2022-11-20T08:10:20;99326.81;;;2.08;100.00
12594;BME280;6362;50.208;9.182;2022-11-20T08:12:49;99325.31;;;2.37;100.00
12594;BME280;6362;50.208;9.182;2022-11-20T08:15:35;99327.53;;;2.29;100.00
12594;BME280;6362;50.208;9.182;2022-11-20T08:20:30;99330.66;;;2.46;100.00
12594;BME280;6362;50.208;9.182;2022-11-20T08:23:00;99335.31;;;2.36;100.00
12594;BME280;6362;50.208;9.182;2022-11-20T08:25:27;99340.78;;;2.48;100.00
12594;BME280;6362;50.208;9.182;2022-11-20T08:27:53;99342.19;;;2.65;100.00
12594;BME280;6362;50.208;9.182;2022-11-20T08:30:18;99338.22;;;2.98;100.00
12594;BME280;6362;50.208;9.182;2022-11-20T08:32:44;99336.00;;;2.81;100.00
12594;BME280;6362;50.208;9.182;2022-11-20T08:35:09;99341.56;;;2.71;100.00
12594;BME280;6362;50.208;9.182;2022-11-20T08:37:34;99344.69;;;2.64;100.00
12594;BME280;6362;50.208;9.182;2022-11-20T08:40:00;99342.16;;;2.64;100.00
12594;BME280;6362;50.208;9.182;2022-11-20T08:42:25;99351.47;;;2.66;100.00
12594;BME280;6362;50.208;9.182;2022-11-20T08:44:51;99354.53;;;2.58;100.00
12594;BME280;6362;50.208;9.182;2022-11-20T08:47:16;99357.00;;;2.56;100.00
12594;BME280;6362;50.208;9.182;2022-11-20T08:49:41;99362.63;;;2.49;100.00
12594;BME280;6362;50.208;9.182;2022-11-20T08:52:07;99355.69;;;2.42;100.00
12594;BME280;6362;50.208;9.182;2022-11-20T08:54:32;99361.03;;;2.51;100.00
12594;BME280;6362;50.208;9.182;2022-11-20T08:56:57;99355.94;;;2.49;100.00
12594;BME280;6362;50.208;9.182;2022-11-20T08:59:23;99355.91;;;2.48;100.00
12594;BME280;6362;50.208;9.182;2022-11-20T09:01:48;99353.09;;;2.40;100.00
12594;BME280;6362;50.208;9.182;2022-11-20T09:04:14;99349.56;;;2.35;100.00
12594;BME280;6362;50.208;9.182;2022-11-20T09:06:39;99355.59;;;2.40;100.00
12594;BME280;6362;50.208;9.182;2022-11-20T09:09:05;99361.19;;;2.32;100.00
12594;BME280;6362;50.208;9.182;2022-11-20T09:11:31;99368.16;;;2.39;100.00
12594;BME280;6362;50.208;9.182;2022-11-20T09:13:56;99367.41;;;2.41;100.00
12594;BME280;6362;50.208;9.182;2022-11-20T09:16:22;99373.13;;;2.37;100.00
12594;BME280;6362;50.208;9.182;2022-11-20T09:18:49;99372.97;;;2.33;100.00
12594;BME280;6362;50.208;9.182;2022-11-20T09:21:15;99378.84;;;2.33;100.00
12594;BME280;6362;50.208;9.182;2022-11-20T09:23:41;99375.53;;;2.34;100.00
12594;BME280;6362;50.208;9.182;2022-11-20T09:26:10;99371.31;;;2.33;100.00
12594;BME280;6362;50.208;9.182;2022-11-20T09:28:36;99378.59;;;2.25;100.00
12594;BME280;6362;50.208;9.182;2022-11-20T09:31:05;99381.44;;;2.35;100.00
12594;BME280;6362;50.208;9.182;2022-11-20T09:33:31;99372.91;;;2.31;100.00
12594;BME280;6362;50.208;9.182;2022-11-20T09:35:56;99376.28;;;2.32;100.00
12594;BME280;6362;50.208;9.182;2022-11-20T09:38:22;99373.13;;;2.37;100.00
12594;BME280;6362;50.208;9.182;2022-11-20T09:41:06;99369.78;;;2.37;100.00
12594;BME280;6362;50.208;9.182;2022-11-20T09:46:17;99368.47;;;2.48;100.00
12594;BME280;6362;50.208;9.182;2022-11-20T09:51:27;99371.16;;;2.53;100.00
12594;BME280;6362;50.208;9.182;2022-11-20T09:56:40;99361.66;;;2.45;100.00
12594;BME280;6362;50.208;9.182;2022-11-20T09:59:17;99362.56;;;2.47;100.00
12594;BME280;6362;50.208;9.182;2022-11-20T10:01:45;99364.22;;;2.47;100.00
12594;BME280;6362;50.208;9.182;2022-11-20T10:04:16;99359.94;;;2.44;100.00
12594;BME280;6362;50.208;9.182;2022-11-20T10:09:35;99352.63;;;2.50;100.00
12594;BME280;6362;50.208;9.182;2022-11-20T10:14:49;99362.84;;;2.55;100.00
12594;BME280;6362;50.208;9.182;2022-11-20T10:20:48;99346.81;;;2.53;100.00
12594;BME280;6362;50.208;9.182;2022-11-20T10:26:31;99347.97;;;2.61;100.00
12594;BME280;6362;50.208;9.182;2022-11-20T10:31:38;99340.78;;;2.74;100.00
12594;BME280;6362;50.208;9.182;2022-11-20T10:37:02;99334.38;;;2.83;100.00
12594;BME280;6362;50.208;9.182;2022-11-20T10:42:26;99335.72;;;2.98;100.00
12594;BME280;6362;50.208;9.182;2022-11-20T10:45:13;99335.25;;;3.09;100.00
12594;BME280;6362;50.208;9.182;2022-11-20T10:47:40;99328.94;;;3.22;100.00
12594;BME280;6362;50.208;9.182;2022-11-20T10:50:11;99325.53;;;3.22;100.00
12594;BME280;6362;50.208;9.182;2022-11-20T10:53:02;99328.19;;;3.26;100.00
12594;BME280;6362;50.208;9.182;2022-11-20T10:55:48;99330.91;;;3.32;100.00
12594;BME280;6362;50.208;9.182;2022-11-20T11:01:25;99335.47;;;3.44;100.00
12594;BME280;6362;50.208;9.182;2022-11-20T11:03:53;99333.81;;;3.45;100.00
12594;BME280;6362;50.208;9.182;2022-11-20T11:06:35;99338.94;;;3.48;100.00
12594;BME280;6362;50.208;9.182;2022-11-20T11:09:04;99328.66;;;3.42;100.00
12594;BME280;6362;50.208;9.182;2022-11-20T11:11:34;99330.97;;;3.34;100.00
12594;BME280;6362;50.208;9.182;2022-11-20T11:14:11;99321.66;;;3.31;100.00
12594;BME280;6362;50.208;9.182;2022-11-20T11:16:49;99322.66;;;3.09;100.00
12594;BME280;6362;50.208;9.182;2022-11-20T11:19:16;99321.75;;;3.07;100.00
12594;BME280;6362;50.208;9.182;2022-11-20T11:21:50;99309.06;;;3.06;100.00
12594;BME280;6362;50.208;9.182;2022-11-20T11:24:28;99316.41;;;2.98;100.00
12594;BME280;6362;50.208;9.182;2022-11-20T11:26:59;99305.44;;;2.96;100.00
12594;BME280;6362;50.208;9.182;2022-11-20T11:29:25;99306.34;;;2.98;100.00
12594;BME280;6362;50.208;9.182;2022-11-20T11:32:08;99300.38;;;2.96;100.00
12594;BME280;6362;50.208;9.182;2022-11-20T11:34:36;99292.78;;;2.95;100.00
12594;BME280;6362;50.208;9.182;2022-11-20T11:37:02;99289.31;;;2.91;100.00
12594;BME280;6362;50.208;9.182;2022-11-20T11:39:30;99288.41;;;2.89;100.00
12594;BME280;6362;50.208;9.182;2022-11-20T11:41:58;99279.09;;;2.86;100.00
12594;BME280;6362;50.208;9.182;2022-11-20T11:44:34;99281.84;;;2.94;100.00
12594;BME280;6362;50.208;9.182;2022-11-20T11:47:26;99288.56;;;2.94;100.00
12594;BME280;6362;50.208;9.182;2022-11-20T11:53:14;99289.47;;;2.96;100.00
12594;BME280;6362;50.208;9.182;2022-11-20T11:55:55;99295.34;;;2.96;100.00
12594;BME280;6362;50.208;9.182;2022-11-20T12:01:32;99291.44;;;3.06;100.00
12594;BME280;6362;50.208;9.182;2022-11-20T12:04:07;99285.41;;;3.01;100.00
12594;BME280;6362;50.208;9.182;2022-11-20T12:06:39;99288.91;;;3.06;100.00
12594;BME280;6362;50.208;9.182;2022-11-20T12:09:11;99285.50;;;3.04;100.00
12594;BME280;6362;50.208;9.182;2022-11-20T12:11:58;99279.72;;;3.06;100.00
12594;BME280;6362;50.208;9.182;2022-11-20T12:14:40;99284.84;;;3.09;100.00
12594;BME280;6362;50.208;9.182;2022-11-20T12:17:11;99284.91;;;3.11;100.00
12594;BME280;6362;50.208;9.182;2022-11-20T12:19:37;99277.34;;;3.11;100.00
12594;BME280;6362;50.208;9.182;2022-11-20T12:25:10;99276.94;;;3.26;100.00
12594;BME280;6362;50.208;9.182;2022-11-20T12:30:24;99283.78;;;3.30;100.00
12594;BME280;6362;50.208;9.182;2022-11-20T12:35:44;99272.00;;;3.29;100.00
12594;BME280;6362;50.208;9.182;2022-11-20T12:43:21;99267.69;;;3.25;100.00
12594;BME280;6362;50.208;9.182;2022-11-20T12:51:33;99256.72;;;3.53;100.00
12594;BME280;6362;50.208;9.182;2022-11-20T12:54:29;99265.06;;;3.50;100.00
12594;BME280;6362;50.208;9.182;2022-11-20T13:05:51;99256.19;;;3.34;100.00
12594;BME280;6362;50.208;9.182;2022-11-20T13:08:25;99259.44;;;3.30;100.00
12594;BME280;6362;50.208;9.182;2022-11-20T13:11:01;99257.53;;;3.23;100.00
12594;BME280;6362;50.208;9.182;2022-11-20T13:13:39;99259.97;;;3.20;100.00
12594;BME280;6362;50.208;9.182;2022-11-20T13:18:52;99256.44;;;3.15;100.00
12594;BME280;6362;50.208;9.182;2022-11-20T13:21:21;99259.06;;;3.18;100.00
12594;BME280;6362;50.208;9.182;2022-11-20T13:23:47;99253.91;;;3.15;100.00
12594;BME280;6362;50.208;9.182;2022-11-20T13:26:19;99248.84;;;3.13;100.00
12594;BME280;6362;50.208;9.182;2022-11-20T13:28:46;99241.19;;;3.10;100.00
12594;BME280;6362;50.208;9.182;2022-11-20T13:31:30;99234.50;;;3.11;100.00
12594;BME280;6362;50.208;9.182;2022-11-20T13:33:56;99244.59;;;3.12;100.00
12594;BME280;6362;50.208;9.182;2022-11-20T13:36:26;99238.72;;;3.12;100.00
12594;BME280;6362;50.208;9.182;2022-11-20T13:38:53;99235.22;;;3.07;100.00
12594;BME280;6362;50.208;9.182;2022-11-20T13:41:34;99226.81;;;3.06;100.00
12594;BME280;6362;50.208;9.182;2022-11-20T13:46:46;99224.50;;;3.14;100.00
12594;BME280;6362;50.208;9.182;2022-11-20T13:49:28;99212.75;;;3.15;100.00
12594;BME280;6362;50.208;9.182;2022-11-20T13:55:30;99213.66;;;3.17;100.00
12594;BME280;6362;50.208;9.182;2022-11-20T14:01:19;99196.16;;;3.21;100.00
12594;BME280;6362;50.208;9.182;2022-11-20T14:03:46;99195.50;;;3.28;100.00
12594;BME280;6362;50.208;9.182;2022-11-20T14:06:33;99194.47;;;3.22;100.00
12594;BME280;6362;50.208;9.182;2022-11-20T14:08:59;99190.25;;;3.21;100.00
12594;BME280;6362;50.208;9.182;2022-11-20T14:11:28;99195.31;;;3.21;100.00
12594;BME280;6362;50.208;9.182;2022-11-20T14:16:22;99183.47;;;3.18;100.00
12594;BME280;6362;50.208;9.182;2022-11-20T14:18:48;99175.00;;;3.16;100.00
12594;BME280;6362;50.208;9.182;2022-11-20T14:21:22;99182.63;;;3.18;100.00
12594;BME280;6362;50.208;9.182;2022-11-20T14:23:48;99165.84;;;3.20;100.00
12594;BME280;6362;50.208;9.182;2022-11-20T14:26:17;99177.88;;;3.28;100.00
12594;BME280;6362;50.208;9.182;2022-11-20T14:28:48;99177.19;;;3.34;100.00
12594;BME280;6362;50.208;9.182;2022-11-20T14:31:21;99186.44;;;3.35;100.00
12594;BME280;6362;50.208;9.182;2022-11-20T14:33:48;99191.34;;;3.29;100.00
12594;BME280;6362;50.208;9.182;2022-11-20T14:36:18;99183.81;;;3.30;100.00
12594;BME280;6362;50.208;9.182;2022-11-20T14:38:45;99173.59;;;3.26;100.00
12594;BME280;6362;50.208;9.182;2022-11-20T14:41:25;99175.53;;;3.34;100.00
12594;BME280;6362;50.208;9.182;2022-11-20T14:43:57;99174.56;;;3.31;100.00
12594;BME280;6362;50.208;9.182;2022-11-20T14:46:24;99178.63;;;3.26;100.00
12594;BME280;6362;50.208;9.182;2022-11-20T14:48:51;99172.81;;;3.28;100.00
12594;BME280;6362;50.208;9.182;2022-11-20T14:51:36;99172.03;;;3.29;100.00